createdAt,value
2024-05-09T00:00:44.337Z,51.30
2024-05-09T00:03:12.238Z,51.30
2024-05-09T00:05:43.785Z,51.20
2024-05-09T00:08:11.622Z,51.40
2024-05-09T00:10:40.050Z,51.40
2024-05-09T00:13:08.726Z,51.30
2024-05-09T00:15:36.537Z,51.40
2024-05-09T00:18:05.961Z,51.40
2024-05-09T00:20:38.833Z,51.50
2024-05-09T00:23:12.297Z,51.60
2024-05-09T00:25:42.160Z,51.60
2024-05-09T00:28:09.424Z,51.50
2024-05-09T00:30:37.443Z,51.40
2024-05-09T00:33:06.615Z,51.30
2024-05-09T00:35:34.961Z,51.30
2024-05-09T00:38:02.302Z,51.30
2024-05-09T00:40:39.671Z,51.30
2024-05-09T00:43:09.924Z,51.30
2024-05-09T00:45:37.001Z,51.30
2024-05-09T00:48:07.113Z,51.20
2024-05-09T00:50:38.071Z,51.10
2024-05-09T00:53:11.706Z,51.20
2024-05-09T00:55:39.689Z,51.10
2024-05-09T00:58:10.583Z,51.10
2024-05-09T01:00:40.322Z,51.80
2024-05-09T01:03:11.114Z,51.30
2024-05-09T01:05:40.433Z,51.40
2024-05-09T01:08:08.771Z,51.50
2024-05-09T01:10:36.917Z,51.70
2024-05-09T01:13:05.220Z,51.80
2024-05-09T01:15:33.035Z,51.80
2024-05-09T01:18:04.862Z,51.90
2024-05-09T01:20:41.053Z,52.10
2024-05-09T01:23:11.425Z,51.90
2024-05-09T01:25:38.861Z,51.80
2024-05-09T01:28:06.663Z,51.70
2024-05-09T01:30:36.231Z,51.60
2024-05-09T01:33:10.020Z,51.50
2024-05-09T01:35:40.847Z,51.30
2024-05-09T01:38:09.805Z,51.30
2024-05-09T01:40:39.488Z,51.30
2024-05-09T01:43:08.917Z,51.40
2024-05-09T01:45:36.899Z,51.40
2024-05-09T01:48:04.747Z,51.30
2024-05-09T01:50:38.349Z,51.10
2024-05-09T01:53:10.090Z,51.10
2024-05-09T01:55:37.382Z,51.90
2024-05-09T01:58:04.580Z,51.10
2024-05-09T02:00:38.786Z,51.00
2024-05-09T02:03:12.306Z,51.00
2024-05-09T02:05:43.080Z,51.00
2024-05-09T02:08:18.247Z,51.00
2024-05-09T02:10:47.636Z,50.90
2024-05-09T02:13:15.167Z,50.80
2024-05-09T02:15:42.416Z,50.80
2024-05-09T02:18:10.287Z,50.80
2024-05-09T02:20:41.448Z,50.80
2024-05-09T02:23:09.761Z,50.70
2024-05-09T02:25:36.943Z,50.70
2024-05-09T02:28:04.061Z,50.70
2024-05-09T02:30:39.273Z,50.80
2024-05-09T02:33:10.077Z,50.70
2024-05-09T02:35:38.828Z,50.70
2024-05-09T02:38:05.981Z,50.60
2024-05-09T02:40:37.093Z,50.70
2024-05-09T02:43:06.877Z,50.90
2024-05-09T02:45:34.043Z,50.90
2024-05-09T02:48:01.875Z,51.00
2024-05-09T02:50:36.644Z,51.10
2024-05-09T02:53:06.883Z,51.10
2024-05-09T02:55:34.225Z,51.00
2024-05-09T02:58:01.307Z,50.90
2024-05-09T03:00:36.782Z,50.70
2024-05-09T03:03:08.736Z,50.60
2024-05-09T03:05:37.307Z,50.60
2024-05-09T03:08:04.815Z,50.60
2024-05-09T03:10:36.188Z,50.60
2024-05-09T03:13:08.617Z,50.50
2024-05-09T03:15:36.260Z,50.60
2024-05-09T03:18:04.549Z,50.60
2024-05-09T03:20:34.985Z,50.60
2024-05-09T03:23:04.527Z,50.70
2024-05-09T03:25:31.794Z,50.70
2024-05-09T03:27:59.315Z,50.70
2024-05-09T03:30:38.421Z,50.70
2024-05-09T03:33:13.960Z,50.80
2024-05-09T03:35:42.074Z,50.70
2024-05-09T03:38:09.339Z,50.80
2024-05-09T03:40:45.276Z,50.80
2024-05-09T03:43:13.525Z,50.70
2024-05-09T03:45:40.539Z,50.70
2024-05-09T03:48:08.316Z,50.60
2024-05-09T03:50:36.557Z,50.60
2024-05-09T03:53:04.578Z,50.70
2024-05-09T03:55:32.216Z,50.70
2024-05-09T03:57:59.500Z,50.60
2024-05-09T04:00:35.124Z,50.60
2024-05-09T04:03:08.256Z,50.70
2024-05-09T04:05:39.561Z,50.60
2024-05-09T04:08:07.026Z,50.50
2024-05-09T04:10:35.111Z,50.50
2024-05-09T04:13:03.314Z,50.50
2024-05-09T04:15:30.728Z,50.80
2024-05-09T04:17:58.030Z,50.90
2024-05-09T04:20:35.859Z,50.90
2024-05-09T04:23:07.269Z,50.90
2024-05-09T04:25:35.134Z,50.80
2024-05-09T04:28:02.222Z,50.70
2024-05-09T04:30:36.983Z,50.70
2024-05-09T04:33:08.877Z,50.50
2024-05-09T04:35:37.972Z,50.40
2024-05-09T04:38:05.722Z,51.10
2024-05-09T04:40:35.990Z,50.30
2024-05-09T04:43:05.490Z,50.50
2024-05-09T04:45:32.646Z,50.70
2024-05-09T04:47:59.968Z,50.70
2024-05-09T04:50:35.588Z,50.80
2024-05-09T04:53:10.349Z,50.80
2024-05-09T04:55:39.007Z,50.80
2024-05-09T04:58:08.812Z,50.70
2024-05-09T05:00:38.006Z,50.70
2024-05-09T05:03:10.118Z,50.70
2024-05-09T05:05:42.406Z,50.80
2024-05-09T05:08:13.232Z,50.80
2024-05-09T05:10:40.930Z,50.90
2024-05-09T05:13:18.297Z,50.80
2024-05-09T05:15:47.225Z,50.90
2024-05-09T05:18:18.474Z,50.80
2024-05-09T05:20:46.031Z,51.70
2024-05-09T05:23:15.512Z,50.80
2024-05-09T05:25:43.132Z,50.70
2024-05-09T05:28:10.746Z,50.70
2024-05-09T05:30:39.038Z,50.70
2024-05-09T05:33:07.274Z,50.70
2024-05-09T05:35:36.206Z,50.70
2024-05-09T05:38:04.162Z,50.70
2024-05-09T05:40:36.562Z,50.80
2024-05-09T05:43:06.027Z,50.80
2024-05-09T05:45:33.168Z,50.60
2024-05-09T05:48:03.110Z,50.70
2024-05-09T05:50:35.822Z,50.70
2024-05-09T05:53:06.616Z,50.80
2024-05-09T05:55:33.830Z,50.80
2024-05-09T05:58:02.031Z,50.80
2024-05-09T06:00:35.122Z,50.80
2024-05-09T06:03:06.063Z,50.80
2024-05-09T06:05:33.405Z,50.70
2024-05-09T06:08:00.816Z,50.70
2024-05-09T06:10:37.176Z,50.60
2024-05-09T06:13:07.355Z,50.60
2024-05-09T06:15:34.485Z,50.50
2024-05-09T06:18:01.835Z,50.40
2024-05-09T06:20:35.634Z,50.20
2024-05-09T06:23:06.746Z,50.00
2024-05-09T06:25:34.809Z,50.10
2024-05-09T06:28:02.406Z,50.10
2024-05-09T06:30:38.016Z,50.00
2024-05-09T06:33:08.991Z,50.00
2024-05-09T06:35:36.989Z,50.00
2024-05-09T06:38:04.518Z,49.90
2024-05-09T06:40:37.780Z,50.00
2024-05-09T06:43:16.418Z,50.10
2024-05-09T06:45:46.872Z,50.20
2024-05-09T06:48:14.336Z,50.10
2024-05-09T06:50:41.567Z,49.80
2024-05-09T06:53:09.405Z,49.50
2024-05-09T06:55:37.261Z,49.40
2024-05-09T06:58:06.378Z,49.30
2024-05-09T07:00:39.078Z,49.20
2024-05-09T07:03:14.275Z,48.80
2024-05-09T07:05:43.977Z,48.50
2024-05-09T07:08:12.367Z,48.20
2024-05-09T07:10:39.436Z,48.20
2024-05-09T07:13:10.342Z,48.30
2024-05-09T07:15:37.392Z,48.30
2024-05-09T07:18:11.916Z,48.20
2024-05-09T07:20:42.685Z,48.10
2024-05-09T07:23:10.687Z,47.70
2024-05-09T07:25:38.282Z,47.60
2024-05-09T07:28:05.777Z,47.40
2024-05-09T07:30:34.523Z,47.50
2024-05-09T07:33:03.612Z,46.80
2024-05-09T07:35:31.303Z,46.80
2024-05-09T07:37:58.861Z,46.10
2024-05-09T07:40:33.147Z,45.40
2024-05-09T07:43:04.737Z,45.00
2024-05-09T07:45:48.164Z,44.60
2024-05-09T07:52:38.115Z,44.40
2024-05-09T07:53:47.893Z,44.30
2024-05-09T07:56:19.835Z,43.90
2024-05-09T07:58:50.702Z,43.70
2024-05-09T08:01:18.075Z,42.80
2024-05-09T08:03:45.441Z,42.40
2024-05-09T08:06:12.565Z,41.50
2024-05-09T08:08:39.515Z,41.20
2024-05-09T08:11:06.792Z,41.10
2024-05-09T08:13:33.814Z,40.80
2024-05-09T08:16:00.976Z,40.70
2024-05-09T08:18:28.449Z,39.60
2024-05-09T08:20:55.631Z,39.50
2024-05-09T08:23:23.790Z,39.20
2024-05-09T08:25:53.011Z,38.40
2024-05-09T08:28:20.444Z,38.00
2024-05-09T08:30:47.671Z,38.80
2024-05-09T08:33:15.552Z,38.20
2024-05-09T08:35:42.785Z,38.50
2024-05-09T08:38:11.119Z,37.70
2024-05-09T08:40:38.697Z,37.90
2024-05-09T08:43:11.691Z,37.70
2024-05-09T08:45:43.717Z,37.30
2024-05-09T08:48:15.087Z,37.00
2024-05-09T08:50:43.784Z,36.20
2024-05-09T08:53:12.070Z,36.00
2024-05-09T08:55:42.784Z,35.20
2024-05-09T08:58:15.129Z,35.20
2024-05-09T09:00:44.095Z,35.40
2024-05-09T09:03:18.443Z,35.90
2024-05-09T09:05:55.144Z,35.60
2024-05-09T09:08:22.893Z,35.20
2024-05-09T09:10:54.097Z,35.70
2024-05-09T09:13:21.116Z,35.50
2024-05-09T09:15:49.017Z,35.00
2024-05-09T09:18:16.900Z,34.60
2024-05-09T09:20:44.658Z,33.50
2024-05-09T09:23:11.718Z,33.50
2024-05-09T09:25:42.040Z,32.70
2024-05-09T09:28:09.602Z,32.80
2024-05-09T09:30:41.154Z,33.20
2024-05-09T09:33:12.191Z,32.70
2024-05-09T09:35:40.360Z,32.00
2024-05-09T09:38:10.072Z,31.90
2024-05-09T09:40:45.118Z,31.20
2024-05-09T09:43:22.500Z,31.60
2024-05-09T09:45:52.194Z,31.10
2024-05-09T09:48:21.528Z,30.50
2024-05-09T09:50:51.136Z,30.40
2024-05-09T09:53:19.371Z,29.70
2024-05-09T09:55:46.972Z,29.90
2024-05-09T09:58:17.426Z,29.60
2024-05-09T10:00:45.260Z,30.30
2024-05-09T10:03:12.525Z,29.80
2024-05-09T10:05:42.233Z,29.50
2024-05-09T10:08:12.472Z,29.30
2024-05-09T10:10:40.192Z,29.10
2024-05-09T10:13:08.783Z,28.80
2024-05-09T10:16:10.982Z,28.30
2024-05-09T10:18:39.588Z,27.90
2024-05-09T10:21:17.543Z,27.20
2024-05-09T10:23:56.620Z,27.70
2024-05-09T10:26:37.821Z,27.60
2024-05-09T10:29:31.189Z,26.70
2024-05-09T10:32:00.219Z,27.40
2024-05-09T10:34:33.911Z,26.10
2024-05-09T10:37:04.205Z,25.00
2024-05-09T10:39:38.773Z,25.10
2024-05-09T10:42:10.093Z,25.70
2024-05-09T10:44:39.846Z,24.40
2024-05-09T10:47:06.821Z,24.40
2024-05-09T10:49:33.885Z,24.10
2024-05-09T10:52:04.346Z,23.40
2024-05-09T10:54:38.765Z,24.00
2024-05-09T10:57:06.651Z,24.00
2024-05-09T10:59:39.497Z,25.10
2024-05-09T11:02:10.196Z,26.20
2024-05-09T11:04:40.156Z,26.40
2024-05-09T11:07:15.923Z,26.70
2024-05-09T11:09:43.712Z,27.40
2024-05-09T11:12:11.344Z,27.00
2024-05-09T11:14:38.649Z,26.90
2024-05-09T11:17:07.415Z,27.00
2024-05-09T11:19:42.488Z,26.90
2024-05-09T11:22:09.527Z,27.80
2024-05-09T11:24:36.981Z,28.10
2024-05-09T11:27:05.819Z,28.50
2024-05-09T11:29:41.157Z,28.40
2024-05-09T11:32:11.631Z,28.60
2024-05-09T11:34:38.938Z,28.80
2024-05-09T11:37:06.128Z,29.20
2024-05-09T11:39:33.113Z,28.90
2024-05-09T11:42:00.142Z,28.60
2024-05-09T11:44:27.587Z,28.80
2024-05-09T11:46:55.176Z,29.20
2024-05-09T11:49:25.343Z,29.00
2024-05-09T11:51:53.407Z,29.20
2024-05-09T11:54:20.374Z,28.90
2024-05-09T11:56:47.330Z,28.80
2024-05-09T11:59:14.368Z,29.30
2024-05-09T12:01:41.699Z,29.40
2024-05-09T12:04:09.344Z,29.10
2024-05-09T12:06:36.720Z,29.20
2024-05-09T12:09:03.813Z,29.60
2024-05-09T12:11:30.806Z,29.50
2024-05-09T12:13:57.960Z,29.80
2024-05-09T12:16:25.191Z,30.00
2024-05-09T12:18:52.280Z,30.70
2024-05-09T12:21:19.208Z,30.00
2024-05-09T12:23:46.067Z,30.40
2024-05-09T12:26:13.016Z,30.00
2024-05-09T12:28:40.004Z,30.00
2024-05-09T12:31:06.897Z,29.90
2024-05-09T12:33:33.848Z,29.30
2024-05-09T12:36:01.238Z,28.90
2024-05-09T12:38:28.301Z,29.70
2024-05-09T12:40:55.313Z,30.00
2024-05-09T12:43:22.584Z,29.50
2024-05-09T12:45:49.704Z,29.50
2024-05-09T12:48:17.227Z,29.10
2024-05-09T12:50:44.501Z,28.60
2024-05-09T12:53:11.722Z,28.80
2024-05-09T12:55:45.122Z,28.60
2024-05-09T12:58:21.944Z,28.90
2024-05-09T13:00:49.282Z,30.00
2024-05-09T13:03:16.646Z,30.30
2024-05-09T13:05:46.676Z,30.40
2024-05-09T13:08:14.298Z,30.00
2024-05-09T13:10:41.852Z,30.00
2024-05-09T13:13:12.608Z,30.00
2024-05-09T13:15:40.009Z,30.20
2024-05-09T13:18:07.899Z,30.30
2024-05-09T13:20:36.840Z,30.10
2024-05-09T13:23:05.759Z,30.20
2024-05-09T13:25:34.919Z,29.80
2024-05-09T13:28:02.977Z,29.30
2024-05-09T13:30:38.533Z,29.00
2024-05-09T13:33:12.479Z,28.50
2024-05-09T13:35:46.669Z,29.00
2024-05-09T13:38:16.996Z,28.90
2024-05-09T13:40:44.203Z,29.20
2024-05-09T13:43:11.592Z,29.70
2024-05-09T13:45:38.598Z,29.60
2024-05-09T13:48:07.093Z,29.70
2024-05-09T13:50:36.376Z,29.80
2024-05-09T13:53:06.835Z,29.90
2024-05-09T13:55:35.427Z,30.30
2024-05-09T13:58:03.096Z,30.60
2024-05-09T14:00:42.257Z,30.90
2024-05-09T14:03:15.113Z,30.60
2024-05-09T14:05:43.136Z,30.50
2024-05-09T14:08:10.462Z,30.10
2024-05-09T14:10:44.281Z,30.20
2024-05-09T14:13:13.228Z,30.50
2024-05-09T14:15:41.421Z,31.00
2024-05-09T14:18:12.209Z,31.00
2024-05-09T14:20:40.917Z,31.50
2024-05-09T14:23:08.511Z,30.80
2024-05-09T14:25:39.004Z,30.90
2024-05-09T14:28:09.451Z,31.10
2024-05-09T14:30:38.160Z,31.20
2024-05-09T14:33:07.383Z,31.30
2024-05-09T14:35:35.545Z,31.10
2024-05-09T14:38:03.241Z,31.00
2024-05-09T14:40:40.436Z,31.10
2024-05-09T14:43:12.402Z,31.60
2024-05-09T14:45:40.252Z,31.50
2024-05-09T14:48:08.093Z,31.50
2024-05-09T14:50:38.639Z,32.10
2024-05-09T14:53:12.043Z,32.10
2024-05-09T14:55:41.140Z,32.00
2024-05-09T14:58:10.867Z,31.80
2024-05-09T15:00:45.686Z,31.40
2024-05-09T15:03:17.040Z,31.40
2024-05-09T15:05:45.110Z,30.90
2024-05-09T15:08:12.758Z,30.60
2024-05-09T15:10:40.242Z,30.80
2024-05-09T15:13:09.798Z,31.00
2024-05-09T15:15:38.539Z,30.70
2024-05-09T15:18:06.192Z,31.20
2024-05-09T15:20:36.315Z,31.40
2024-05-09T15:23:06.758Z,30.90
2024-05-09T15:25:35.013Z,30.60
2024-05-09T15:28:02.374Z,30.30
2024-05-09T15:30:32.768Z,30.10
2024-05-09T15:33:06.431Z,29.90
2024-05-09T15:35:34.606Z,29.90
2024-05-09T15:38:05.429Z,29.70
2024-05-09T15:40:39.123Z,29.70
2024-05-09T15:43:09.917Z,29.80
2024-05-09T15:45:38.743Z,30.00
2024-05-09T15:48:08.172Z,30.40
2024-05-09T15:50:39.519Z,31.00
2024-05-09T15:53:10.323Z,30.60
2024-05-09T15:55:38.164Z,30.10
2024-05-09T15:58:06.541Z,30.00
2024-05-09T16:00:39.166Z,30.10
2024-05-09T16:03:13.982Z,29.90
2024-05-09T16:05:44.663Z,30.10
2024-05-09T16:08:13.105Z,30.20
2024-05-09T16:10:44.491Z,29.80
2024-05-09T16:13:12.830Z,29.90
2024-05-09T16:15:40.146Z,30.30
2024-05-09T16:18:07.531Z,30.70
2024-05-09T16:20:39.827Z,29.80
2024-05-09T16:23:09.567Z,29.90
2024-05-09T16:25:37.109Z,30.50
2024-05-09T16:28:08.902Z,30.80
2024-05-09T16:30:39.129Z,31.30
2024-05-09T16:33:06.733Z,31.70
2024-05-09T16:35:35.092Z,31.70
2024-05-09T16:38:03.113Z,32.00
2024-05-09T16:40:37.415Z,32.30
2024-05-09T16:43:07.874Z,32.10
2024-05-09T16:45:35.521Z,32.20
2024-05-09T16:48:03.157Z,32.20
2024-05-09T16:50:33.953Z,32.20
2024-05-09T16:53:03.598Z,32.30
2024-05-09T16:55:31.100Z,32.60
2024-05-09T16:57:58.495Z,32.90
2024-05-09T17:00:35.623Z,33.20
2024-05-09T17:03:09.094Z,33.30
2024-05-09T17:05:36.743Z,33.50
2024-05-09T17:08:04.366Z,33.80
2024-05-09T17:10:34.079Z,33.90
2024-05-09T17:13:04.026Z,34.10
2024-05-09T17:15:32.653Z,34.10
2024-05-09T17:17:59.983Z,34.40
2024-05-09T17:20:33.061Z,34.00
2024-05-09T17:23:04.172Z,33.90
2024-05-09T17:25:31.456Z,34.00
2024-05-09T17:28:05.310Z,33.80
2024-05-09T17:30:36.750Z,33.80
2024-05-09T17:33:07.072Z,33.90
2024-05-09T17:35:35.620Z,33.70
2024-05-09T17:38:02.776Z,33.60
2024-05-09T17:40:34.647Z,33.90
2024-05-09T17:43:04.976Z,34.70
2024-05-09T17:45:33.006Z,34.10
2024-05-09T17:48:00.951Z,34.40
2024-05-09T17:50:35.027Z,34.30
2024-05-09T17:53:04.972Z,34.50
2024-05-09T17:55:32.554Z,34.70
2024-05-09T17:57:59.738Z,35.20
2024-05-09T18:02:57.014Z,34.60
2024-05-09T18:05:24.133Z,34.70
2024-05-09T18:07:51.190Z,34.90
2024-05-09T18:10:25.441Z,35.10
2024-05-09T18:12:57.167Z,34.70
2024-05-09T18:15:24.320Z,35.00
2024-05-09T18:17:52.087Z,35.40
2024-05-09T18:20:28.708Z,35.50
2024-05-09T18:23:05.675Z,35.50
2024-05-09T18:25:32.607Z,35.70
2024-05-09T18:27:59.629Z,36.00
2024-05-09T18:30:32.473Z,36.00
2024-05-09T18:33:02.637Z,36.10
2024-05-09T18:35:29.845Z,36.10
2024-05-09T18:37:56.961Z,36.10
2024-05-09T18:42:53.715Z,36.40
2024-05-09T18:45:20.781Z,36.50
2024-05-09T18:47:47.932Z,36.70
2024-05-09T18:50:24.368Z,36.70
2024-05-09T18:52:58.772Z,36.80
2024-05-09T18:55:25.664Z,36.60
2024-05-09T18:57:52.680Z,36.80
2024-05-09T19:00:31.066Z,37.00
2024-05-09T19:03:05.408Z,37.00
2024-05-09T19:05:35.289Z,37.00
2024-05-09T19:08:03.139Z,37.30
2024-05-09T19:10:34.342Z,37.30
2024-05-09T19:13:06.846Z,37.40
2024-05-09T19:15:38.491Z,37.50
2024-05-09T19:18:06.521Z,37.70
2024-05-09T19:20:35.586Z,37.90
2024-05-09T19:23:04.604Z,38.10
2024-05-09T19:25:32.414Z,38.20
2024-05-09T19:28:00.488Z,38.40
2024-05-09T19:30:36.678Z,38.50
2024-05-09T19:33:08.064Z,38.70
2024-05-09T19:35:35.399Z,38.80
2024-05-09T19:38:02.627Z,38.80
2024-05-09T19:40:32.362Z,38.80
2024-05-09T19:43:02.667Z,38.80
2024-05-09T19:45:30.756Z,38.90
2024-05-09T19:47:58.085Z,39.00
2024-05-09T19:50:32.851Z,39.20
2024-05-09T19:53:08.287Z,39.30
2024-05-09T19:55:35.533Z,39.50
2024-05-09T19:58:05.247Z,39.60
2024-05-09T20:00:39.896Z,39.80
2024-05-09T20:03:10.125Z,39.80
2024-05-09T20:05:38.498Z,39.90
2024-05-09T20:08:06.639Z,40.00
2024-05-09T20:10:35.610Z,40.20
2024-05-09T20:13:05.216Z,40.40
2024-05-09T20:15:35.211Z,40.70
2024-05-09T20:18:02.943Z,40.90
2024-05-09T20:20:37.391Z,41.10
2024-05-09T20:23:08.701Z,41.20
2024-05-09T20:25:35.822Z,41.40
2024-05-09T20:28:03.048Z,41.60
2024-05-09T20:30:32.913Z,41.60
2024-05-09T20:33:07.338Z,41.80
2024-05-09T20:35:36.428Z,42.00
2024-05-09T20:38:04.352Z,42.30
2024-05-09T20:40:35.713Z,42.20
2024-05-09T20:43:06.676Z,43.00
2024-05-09T20:45:34.630Z,42.40
2024-05-09T20:48:02.660Z,42.70
2024-05-09T20:50:37.302Z,42.90
2024-05-09T20:53:09.729Z,42.80
2024-05-09T20:55:36.944Z,42.90
2024-05-09T20:58:04.360Z,43.10
2024-05-09T21:00:39.746Z,43.30
2024-05-09T21:03:11.413Z,43.40
2024-05-09T21:05:39.179Z,43.50
2024-05-09T21:08:06.938Z,43.60
2024-05-09T21:10:35.261Z,44.60
2024-05-09T21:13:03.587Z,43.80
2024-05-09T21:15:31.603Z,44.00
2024-05-09T21:17:58.909Z,44.10
2024-05-09T21:20:31.321Z,44.20
2024-05-09T21:22:59.804Z,44.20
2024-05-09T21:25:27.136Z,44.20
2024-05-09T21:27:54.328Z,45.10
2024-05-09T21:30:32.123Z,44.40
2024-05-09T21:33:09.895Z,44.60
2024-05-09T21:35:38.402Z,44.40
2024-05-09T21:38:05.776Z,44.50
2024-05-09T21:40:35.282Z,44.70
2024-05-09T21:43:04.805Z,44.90
2024-05-09T21:45:32.354Z,44.90
2024-05-09T21:47:59.636Z,44.90
2024-05-09T21:50:35.444Z,45.10
2024-05-09T21:53:07.745Z,45.20
2024-05-09T21:55:35.162Z,45.30
2024-05-09T21:58:02.865Z,45.60
2024-05-09T22:00:36.906Z,45.60
2024-05-09T22:03:10.592Z,45.70
2024-05-09T22:05:41.942Z,46.00
2024-05-09T22:08:09.487Z,46.90
2024-05-09T22:10:37.226Z,46.20
2024-05-09T22:13:06.184Z,46.10
2024-05-09T22:15:36.850Z,46.20
2024-05-09T22:18:05.714Z,46.40
2024-05-09T22:20:37.755Z,46.50
2024-05-09T22:23:07.145Z,46.50
2024-05-09T22:25:34.501Z,46.60
2024-05-09T22:28:02.523Z,47.40
2024-05-09T22:32:59.708Z,47.00
2024-05-09T22:35:26.805Z,47.00
2024-05-09T22:37:53.804Z,47.00
2024-05-09T22:40:29.188Z,47.00
2024-05-09T22:43:06.057Z,46.90
2024-05-09T22:45:33.262Z,46.70
2024-05-09T22:48:00.925Z,46.80
2024-05-09T22:50:32.916Z,46.90
2024-05-09T22:53:00.776Z,46.90
2024-05-09T22:55:27.911Z,47.00
2024-05-09T22:57:55.068Z,47.10
2024-05-09T23:00:30.850Z,47.30
2024-05-09T23:03:00.715Z,47.40
2024-05-09T23:05:28.224Z,47.40
2024-05-09T23:07:55.443Z,47.50
2024-05-09T23:10:30.850Z,47.50
2024-05-09T23:13:02.272Z,47.60
2024-05-09T23:15:29.686Z,47.60
2024-05-09T23:17:58.093Z,47.70
2024-05-09T23:20:35.335Z,47.80
2024-05-09T23:23:06.662Z,47.80
2024-05-09T23:25:34.019Z,47.80
2024-05-09T23:28:01.238Z,47.80
2024-05-09T23:30:34.788Z,47.90
2024-05-09T23:33:06.097Z,48.00
2024-05-09T23:35:33.182Z,47.90
2024-05-09T23:38:00.164Z,48.00
2024-05-09T23:40:37.317Z,48.00
2024-05-09T23:43:08.597Z,48.20
2024-05-09T23:45:35.949Z,48.00
2024-05-09T23:48:03.619Z,47.90
2024-05-09T23:50:35.087Z,47.80
2024-05-09T23:53:05.857Z,47.90
2024-05-09T23:55:33.132Z,48.00
2024-05-09T23:58:00.574Z,48.30
